Time;durP1;ratioP1;P1;durP2;ratioP2;P2;SDS_P1;SDS_P2;PMS_P1;PMS_P2;Temp;Humidity;BMP_temperature;BMP_pressure;BME280_temperature;BME280_humidity;BME280_pressure;Samples;Min_cycle;Max_cycle;Signal;HPM_P1;HPM_P2
2020/12/29 00:00:01;;;;;;;14.75;1.92;;;6.50;99.90;;;;;;6163794;23;20037;-90
2020/12/29 00:02:41;;;;;;;11.25;1.42;;;6.50;99.90;;;;;;6162016;23;20044;-91
2020/12/29 00:05:17;;;;;;;7.90;1.52;;;6.40;99.90;;;;;;6162748;23;20017;-90
2020/12/29 00:07:55;;;;;;;9.80;1.90;;;6.40;99.90;;;;;;6162560;23;20017;-90
2020/12/29 00:10:32;;;;;;;10.02;1.65;;;6.40;99.90;;;;;;6163080;23;20020;-90
2020/12/29 00:13:10;;;;;;;11.50;2.67;;;6.30;99.90;;;;;;6163317;23;20017;-90
2020/12/29 00:15:46;;;;;;;16.60;2.55;;;6.30;99.90;;;;;;6186255;23;20041;-90
2020/12/29 00:18:25;;;;;;;20.23;2.58;;;6.30;99.90;;;;;;6162063;23;20017;-91
2020/12/29 00:21:06;;;;;;;16.42;2.55;;;6.30;99.90;;;;;;6186203;23;20048;-91
2020/12/29 00:23:47;;;;;;;20.25;2.92;;;6.30;99.90;;;;;;6163710;23;20024;-90
2020/12/29 00:26:26;;;;;;;18.70;3.60;;;6.40;99.90;;;;;;6162126;23;20023;-89
2020/12/29 00:29:01;;;;;;;25.75;4.45;;;6.40;99.90;;;;;;6161249;23;20071;-89
2020/12/29 00:31:36;;;;;;;22.75;3.05;;;6.50;99.90;;;;;;6162934;23;20029;-89
2020/12/29 00:34:13;;;;;;;16.83;3.28;;;6.50;99.90;;;;;;6161852;23;20013;-89
2020/12/29 00:36:52;;;;;;;13.20;2.92;;;6.50;99.90;;;;;;6161307;23;20028;-90
2020/12/29 00:39:29;;;;;;;17.35;2.90;;;6.50;99.90;;;;;;6185493;23;20445;-90
2020/12/29 00:42:04;;;;;;;18.65;3.45;;;6.50;99.90;;;;;;6161551;23;20039;-90
2020/12/29 00:44:46;;;;;;;18.27;2.80;;;6.50;99.90;;;;;;6186702;23;20064;-90
2020/12/29 00:47:26;;;;;;;20.75;3.10;;;6.50;99.90;;;;;;6162647;23;20428;-91
2020/12/29 00:50:04;;;;;;;18.17;2.90;;;6.50;99.90;;;;;;6161546;23;20032;-90
2020/12/29 00:52:39;;;;;;;17.58;3.45;;;6.50;99.90;;;;;;6162724;23;20028;-90
2020/12/29 00:55:16;;;;;;;25.42;3.75;;;6.60;99.90;;;;;;6161991;23;20096;-91
2020/12/29 00:57:56;;;;;;;20.65;2.70;;;6.60;99.90;;;;;;6161790;23;20021;-91
2020/12/29 01:00:36;;;;;;;23.05;2.90;;;6.60;99.90;;;;;;6162674;23;20019;-91
2020/12/29 01:03:19;;;;;;;26.13;3.88;;;6.60;99.90;;;;;;6162247;23;20076;-91
2020/12/29 01:06:00;;;;;;;22.70;3.45;;;6.70;99.90;;;;;;6162404;23;20017;-91
2020/12/29 01:08:36;;;;;;;19.70;3.22;;;6.70;99.90;;;;;;6161741;23;20013;-90
2020/12/29 01:11:14;;;;;;;25.05;3.60;;;6.70;99.90;;;;;;6161617;23;20028;-90
2020/12/29 01:13:59;;;;;;;23.23;3.60;;;6.70;99.90;;;;;;6163980;23;20329;-90
2020/12/29 01:16:36;;;;;;;17.10;3.63;;;6.70;99.90;;;;;;6165134;23;20021;-91
2020/12/29 01:19:17;;;;;;;20.52;3.15;;;6.70;99.90;;;;;;6165438;23;20023;-91
2020/12/29 01:22:00;;;;;;;16.52;2.63;;;6.70;99.90;;;;;;6164732;23;20077;-91
2020/12/29 01:24:38;;;;;;;19.58;3.20;;;6.60;99.90;;;;;;6187946;23;20013;-91
2020/12/29 01:27:15;;;;;;;12.18;2.47;;;6.60;99.90;;;;;;6163642;23;20020;-90
2020/12/29 01:29:54;;;;;;;15.25;3.20;;;6.60;99.90;;;;;;6163800;23;20017;-91
2020/12/29 01:32:34;;;;;;;12.80;2.40;;;6.70;99.90;;;;;;6164375;23;20017;-91
2020/12/29 01:35:14;;;;;;;16.75;3.10;;;6.70;99.90;;;;;;6163402;23;20017;-90
2020/12/29 01:37:57;;;;;;;12.85;2.53;;;6.70;99.90;;;;;;6165620;23;20028;-91
2020/12/29 01:40:35;;;;;;;15.40;2.63;;;6.70;99.90;;;;;;6164481;23;20013;-90
2020/12/29 01:43:14;;;;;;;17.10;2.58;;;6.70;99.90;;;;;;6163938;23;20100;-91
2020/12/29 01:45:54;;;;;;;12.07;3.13;;;6.70;99.90;;;;;;6163760;23;20013;-91
2020/12/29 01:48:33;;;;;;;14.57;2.50;;;6.70;99.90;;;;;;6164435;23;20021;-90
2020/12/29 01:51:07;;;;;;;15.02;2.40;;;6.70;99.90;;;;;;6186897;23;20021;-90
2020/12/29 01:53:41;;;;;;;23.30;3.33;;;6.60;99.90;;;;;;6163232;23;20013;-90
2020/12/29 01:56:20;;;;;;;20.15;2.95;;;6.60;99.90;;;;;;6187834;23;20025;-89
2020/12/29 01:58:57;;;;;;;12.93;2.50;;;6.60;99.90;;;;;;6164089;23;20065;-90
2020/12/29 02:01:36;;;;;;;21.95;3.67;;;6.60;99.90;;;;;;6164040;23;20091;-91
2020/12/29 02:04:18;;;;;;;17.25;2.58;;;6.60;99.90;;;;;;6163830;23;20029;-91
2020/12/29 02:07:00;;;;;;;21.85;3.50;;;6.50;99.90;;;;;;6164563;23;20013;-92
2020/12/29 02:09:39;;;;;;;24.67;3.45;;;6.50;99.90;;;;;;6163884;23;20056;-91
2020/12/29 02:12:22;;;;;;;;;;;6.50;99.90;;;;;;6164831;23;20028;-91
2020/12/29 02:15:01;;;;;;;18.13;3.22;;;6.50;99.90;;;;;;6163593;23;19923;-91
2020/12/29 02:17:42;;;;;;;16.10;3.30;;;6.50;99.90;;;;;;6164111;23;20474;-91
2020/12/29 02:20:24;;;;;;;16.30;2.78;;;6.50;99.90;;;;;;6164906;23;20017;-91
2020/12/29 02:23:03;;;;;;;19.55;3.17;;;6.50;99.90;;;;;;6163151;23;20024;-91
2020/12/29 02:25:50;;;;;;;14.70;2.50;;;6.40;99.90;;;;;;6164028;23;20027;-91
2020/12/29 02:28:31;;;;;;;12.30;2.30;;;6.40;99.90;;;;;;6164194;23;20013;-90
2020/12/29 02:31:15;;;;;;;12.25;2.10;;;6.40;99.90;;;;;;6187343;23;20021;-90
2020/12/29 02:33:55;;;;;;;13.88;2.50;;;6.50;99.90;;;;;;6164250;23;20041;-90
2020/12/29 02:36:38;;;;;;;17.85;2.25;;;6.40;99.90;;;;;;6162796;23;20079;-90
2020/12/29 02:39:19;;;;;;;16.35;2.17;;;6.40;99.90;;;;;;6163966;23;20075;-91
2020/12/29 02:41:58;;;;;;;13.63;2.42;;;6.50;99.90;;;;;;6162828;23;20457;-90
2020/12/29 02:44:37;;;;;;;14.40;2.75;;;6.40;99.90;;;;;;6163656;23;20017;-91
2020/12/29 02:47:19;;;;;;;12.23;2.30;;;6.40;99.90;;;;;;6164083;23;20017;-90
2020/12/29 02:50:01;;;;;;;12.90;2.20;;;6.40;99.90;;;;;;6163235;23;20020;-90
2020/12/29 02:52:41;;;;;;;29.20;3.00;;;6.30;99.90;;;;;;6164102;23;20020;-90
2020/12/29 02:55:17;;;;;;;18.05;2.75;;;6.30;99.90;;;;;;6164071;23;20064;-90
2020/12/29 02:57:58;;;;;;;15.02;2.78;;;6.30;99.90;;;;;;6164090;23;20017;-90
2020/12/29 03:00:34;;;;;;;17.70;2.55;;;6.30;99.90;;;;;;6163308;23;20017;-90
2020/12/29 03:03:14;;;;;;;12.48;2.08;;;6.30;99.90;;;;;;6163223;23;20021;-90
2020/12/29 03:05:51;;;;;;;9.15;1.83;;;6.20;99.90;;;;;;6162932;23;20067;-89
2020/12/29 03:08:31;;;;;;;8.90;2.13;;;6.20;99.90;;;;;;6164656;23;20032;-90
2020/12/29 03:11:09;;;;;;;12.57;2.10;;;6.10;99.90;;;;;;6164009;23;20018;-90
2020/12/29 03:13:58;;;;;;;13.35;2.47;;;6.10;99.90;;;;;;6165276;23;20512;-90
2020/12/29 03:16:37;;;;;;;13.40;2.45;;;6.00;99.90;;;;;;6163393;23;20045;-91
2020/12/29 03:19:25;;;;;;;7.75;1.40;;;6.00;99.90;;;;;;6187039;23;20016;-91
2020/12/29 03:22:07;;;;;;;6.40;1.10;;;6.00;99.90;;;;;;6163249;23;20017;-91
2020/12/29 03:24:49;;;;;;;7.07;0.98;;;5.90;99.90;;;;;;6162984;23;20028;-90
2020/12/29 03:27:26;;;;;;;6.90;1.10;;;5.80;99.90;;;;;;6162549;23;20032;-90
2020/12/29 03:30:02;;;;;;;4.85;1.80;;;5.80;99.90;;;;;;6162498;23;20020;-89
2020/12/29 03:32:41;;;;;;;8.10;1.10;;;5.70;99.90;;;;;;6186490;23;20052;-90
2020/12/29 03:35:22;;;;;;;3.55;1.02;;;5.70;99.90;;;;;;6162559;23;20017;-90
2020/12/29 03:37:57;;;;;;;5.93;1.27;;;5.70;99.90;;;;;;6162485;23;20075;-90
2020/12/29 03:40:34;;;;;;;10.30;1.08;;;5.70;99.90;;;;;;6163090;23;20615;-91
2020/12/29 03:43:14;;;;;;;11.05;1.65;;;5.60;99.90;;;;;;6162587;23;20017;-91
2020/12/29 03:46:00;;;;;;;14.07;1.80;;;5.60;99.90;;;;;;6163520;23;20437;-91
2020/12/29 03:48:40;;;;;;;7.63;1.40;;;5.60;99.90;;;;;;6162762;23;20154;-91
2020/12/29 03:51:23;;;;;;;9.88;2.13;;;5.60;99.90;;;;;;6163661;23;20021;-91
2020/12/29 03:54:00;;;;;;;11.38;1.67;;;5.60;99.90;;;;;;6161615;23;20013;-90
2020/12/29 03:56:40;;;;;;;16.60;2.50;;;5.60;99.90;;;;;;6162797;23;20068;-90
2020/12/29 03:59:16;;;;;;;18.98;2.47;;;5.50;99.90;;;;;;6160504;23;20021;-90
2020/12/29 04:01:58;;;;;;;14.55;2.63;;;5.60;99.90;;;;;;6186052;23;20052;-90
2020/12/29 04:04:36;;;;;;;13.88;2.40;;;5.60;99.90;;;;;;6162043;23;20441;-90
2020/12/29 04:07:14;;;;;;;14.35;1.88;;;5.60;99.90;;;;;;6161939;23;20055;-90
2020/12/29 04:09:55;;;;;;;16.52;2.40;;;5.60;99.90;;;;;;6161960;23;20020;-90
2020/12/29 04:12:30;;;;;;;13.68;2.30;;;5.60;99.90;;;;;;6162464;23;20039;-90
2020/12/29 04:15:10;;;;;;;16.45;2.85;;;5.60;99.90;;;;;;6163163;23;20017;-90
2020/12/29 04:17:50;;;;;;;12.05;2.00;;;5.50;99.90;;;;;;6162673;23;20025;-89
2020/12/29 04:20:26;;;;;;;21.38;3.22;;;5.50;99.90;;;;;;6186133;23;20472;-91
2020/12/29 04:23:04;;;;;;;22.38;3.28;;;5.40;99.90;;;;;;6186192;23;20017;-90
2020/12/29 04:25:43;;;;;;;15.15;2.78;;;5.50;99.90;;;;;;6163484;23;20017;-90
2020/12/29 04:28:24;;;;;;;18.75;2.88;;;5.60;99.90;;;;;;6162839;23;20071;-90
2020/12/29 04:31:07;;;;;;;21.02;3.05;;;5.70;99.90;;;;;;6164251;23;20369;-90
2020/12/29 04:33:43;;;;;;;15.65;2.58;;;5.70;99.90;;;;;;6186388;23;20017;-90
2020/12/29 04:36:24;;;;;;;16.20;3.20;;;5.90;99.90;;;;;;6162175;23;20045;-90
2020/12/29 04:39:00;;;;;;;14.15;2.20;;;6.00;99.90;;;;;;6163326;23;20020;-90
2020/12/29 04:41:36;;;;;;;20.50;2.50;;;6.00;99.90;;;;;;6186509;23;20013;-90
2020/12/29 04:44:12;;;;;;;26.42;4.53;;;6.10;99.90;;;;;;6162450;23;20484;-90
2020/12/29 04:46:49;;;;;;;;;;;6.10;99.90;;;;;;6163498;23;20067;-89
2020/12/29 04:49:25;;;;;;;13.57;2.42;;;6.10;99.90;;;;;;6161946;23;19988;-90
2020/12/29 04:52:03;;;;;;;14.40;2.33;;;6.10;99.90;;;;;;6164352;23;20016;-90
2020/12/29 04:54:42;;;;;;;20.92;3.40;;;6.10;99.90;;;;;;6164617;23;20017;-89
2020/12/29 04:57:23;;;;;;;30.65;3.65;;;6.20;99.90;;;;;;6164792;23;20024;-90
2020/12/29 05:00:00;;;;;;;13.38;2.50;;;6.20;99.90;;;;;;6164346;23;20021;-91
2020/12/29 05:02:40;;;;;;;18.95;2.78;;;6.20;99.90;;;;;;6164383;23;20485;-90
2020/12/29 05:05:23;;;;;;;21.88;3.60;;;6.30;99.90;;;;;;6164804;23;20413;-89
2020/12/29 05:08:00;;;;;;;17.83;2.67;;;6.30;99.90;;;;;;6164041;23;20017;-91
2020/12/29 05:10:35;;;;;;;13.20;2.70;;;6.40;99.90;;;;;;6163308;23;20076;-89
2020/12/29 05:13:13;;;;;;;12.43;2.38;;;6.40;99.90;;;;;;6187447;23;20021;-90
2020/12/29 05:15:49;;;;;;;12.57;1.83;;;6.40;99.90;;;;;;6163973;23;20039;-90
2020/12/29 05:18:27;;;;;;;12.13;2.10;;;6.40;99.90;;;;;;6163914;23;20021;-90
2020/12/29 05:21:04;;;;;;;5.55;1.70;;;6.30;99.90;;;;;;6164833;23;20033;-90
2020/12/29 05:23:44;;;;;;;11.45;1.52;;;6.30;99.90;;;;;;6164667;23;20017;-90
2020/12/29 05:26:24;;;;;;;5.88;1.42;;;6.30;99.90;;;;;;6163770;23;20017;-89
2020/12/29 05:29:01;;;;;;;11.43;1.70;;;6.30;99.90;;;;;;6164173;23;20028;-90
2020/12/29 05:31:37;;;;;;;9.80;2.30;;;6.30;99.90;;;;;;6163988;23;20031;-90
2020/12/29 05:34:20;;;;;;;10.57;2.13;;;6.30;99.90;;;;;;6163811;23;20036;-90
2020/12/29 05:37:01;;;;;;;14.65;2.17;;;6.30;99.90;;;;;;6163141;23;20021;-90
2020/12/29 05:39:41;;;;;;;8.80;1.42;;;6.30;99.90;;;;;;6164384;23;20037;-90
2020/12/29 05:42:29;;;;;;;11.13;1.52;;;6.20;99.90;;;;;;6163416;23;20325;-90
2020/12/29 05:45:06;;;;;;;;;;;6.20;99.90;;;;;;6164085;23;20028;-90
2020/12/29 05:47:43;;;;;;;8.95;1.48;;;6.20;99.90;;;;;;6163563;23;20355;-89
2020/12/29 05:50:19;;;;;;;9.73;1.73;;;6.20;99.90;;;;;;6163025;23;20092;-90
2020/12/29 05:53:04;;;;;;;6.45;1.42;;;6.10;99.90;;;;;;6164146;23;20017;-90
2020/12/29 05:55:46;;;;;;;6.30;1.35;;;6.10;99.90;;;;;;6188257;23;20429;-90
2020/12/29 05:58:24;;;;;;;9.68;1.70;;;6.10;99.90;;;;;;6163550;23;20023;-90
2020/12/29 06:01:00;;;;;;;10.77;2.08;;;6.10;99.90;;;;;;6162744;23;20020;-90
2020/12/29 06:03:37;;;;;;;14.43;2.22;;;6.10;99.90;;;;;;6163793;23;20029;-91
2020/12/29 06:06:14;;;;;;;9.95;1.83;;;6.10;99.90;;;;;;6163879;23;20044;-91
2020/12/29 06:08:51;;;;;;;12.23;2.42;;;6.10;99.90;;;;;;6164361;23;20134;-90
2020/12/29 06:11:36;;;;;;;10.48;2.15;;;6.00;99.90;;;;;;6164545;23;20017;-90
2020/12/29 06:14:15;;;;;;;10.95;1.90;;;6.00;99.90;;;;;;6163834;23;20013;-90
2020/12/29 06:16:55;;;;;;;13.63;2.10;;;6.00;99.90;;;;;;6164619;23;20017;-90
2020/12/29 06:19:36;;;;;;;14.48;2.47;;;6.00;99.90;;;;;;6163797;23;20017;-90
2020/12/29 06:22:13;;;;;;;11.88;2.20;;;5.90;99.90;;;;;;6163721;23;20025;-90
2020/12/29 06:24:54;;;;;;;14.73;2.63;;;6.00;99.90;;;;;;6164181;23;20096;-90
2020/12/29 06:27:41;;;;;;;18.08;2.92;;;5.90;99.90;;;;;;6165807;23;20017;-90
2020/12/29 06:30:22;;;;;;;14.40;2.90;;;6.00;99.90;;;;;;6163563;23;20078;-90
2020/12/29 06:33:05;;;;;;;13.60;2.40;;;6.00;99.90;;;;;;6186795;23;20314;-90
2020/12/29 06:35:44;;;;;;;8.38;2.08;;;6.00;99.90;;;;;;6163930;23;20021;-90
2020/12/29 06:38:31;;;;;;;8.77;1.80;;;6.00;99.90;;;;;;6163620;23;20489;-90
2020/12/29 06:41:14;;;;;;;10.63;1.75;;;6.00;99.90;;;;;;6163168;23;20373;-90
2020/12/29 06:43:51;;;;;;;17.20;1.75;;;6.10;99.90;;;;;;6163158;23;20013;-90
2020/12/29 06:46:30;;;;;;;10.95;2.33;;;6.10;99.90;;;;;;6163400;23;20024;-90
2020/12/29 06:49:25;;;;;;;12.45;2.10;;;6.10;99.90;;;;;;6164195;23;20441;-90
2020/12/29 06:52:22;;;;;;;14.20;2.28;;;6.10;99.90;;;;;;6162983;23;20021;-90
2020/12/29 06:55:10;;;;;;;12.02;1.98;;;6.10;99.90;;;;;;6163056;23;20021;-90
2020/12/29 06:57:42;;;;;;;12.45;2.33;;;6.10;99.90;;;;;;6162608;23;20019;-90
2020/12/29 07:00:23;;;;;;;9.95;2.20;;;6.20;99.90;;;;;;6163378;23;20065;-90
2020/12/29 07:03:00;;;;;;;14.13;2.10;;;6.20;99.90;;;;;;6163013;23;20021;-90
2020/12/29 07:05:37;;;;;;;14.05;2.00;;;6.20;99.90;;;;;;6162851;23;20021;-90
2020/12/29 07:08:09;;;;;;;11.85;1.60;;;6.20;99.90;;;;;;6161713;23;20013;-90
2020/12/29 07:10:46;;;;;;;12.00;1.88;;;6.10;99.90;;;;;;6162482;23;20068;-91
2020/12/29 07:13:24;;;;;;;6.18;1.65;;;6.10;99.90;;;;;;6161836;23;20017;-90
2020/12/29 07:15:56;;;;;;;;;;;6.10;99.90;;;;;;6163265;23;20024;-90
2020/12/29 07:18:37;;;;;;;15.98;2.88;;;6.00;99.90;;;;;;6162821;23;19916;-92
2020/12/29 07:21:30;;;;;;;10.20;1.65;;;6.00;99.90;;;;;;6163028;23;20016;-91
2020/12/29 07:24:09;;;;;;;8.10;1.70;;;6.00;99.90;;;;;;6161924;23;20321;-90
2020/12/29 07:26:48;;;;;;;11.93;2.40;;;5.90;99.90;;;;;;6162723;23;20417;-91
2020/12/29 07:29:31;;;;;;;12.93;1.88;;;5.90;99.90;;;;;;6163883;23;20026;-90
2020/12/29 07:32:07;;;;;;;11.50;1.55;;;5.80;99.90;;;;;;6162120;23;20017;-91
2020/12/29 07:34:47;;;;;;;12.65;2.03;;;5.80;99.90;;;;;;6162302;23;20013;-91
2020/12/29 07:37:25;;;;;;;10.70;1.50;;;5.80;99.90;;;;;;6162022;23;20024;-90
2020/12/29 07:40:02;;;;;;;10.80;1.55;;;5.80;99.90;;;;;;6162459;23;20017;-90
2020/12/29 07:42:43;;;;;;;9.82;1.45;;;5.80;99.90;;;;;;6164817;23;20017;-91
2020/12/29 07:45:24;;;;;;;8.48;1.80;;;5.80;99.90;;;;;;6162748;23;20017;-91
2020/12/29 07:48:02;;;;;;;10.93;1.88;;;5.80;99.90;;;;;;6167034;23;20021;-92
2020/12/29 07:50:40;;;;;;;17.33;1.83;;;5.80;99.90;;;;;;6163281;23;20100;-91
2020/12/29 07:53:18;;;;;;;8.57;1.73;;;5.80;99.90;;;;;;6162842;23;20043;-91
2020/12/29 07:55:56;;;;;;;12.02;1.80;;;5.90;99.90;;;;;;6163556;23;20017;-91
2020/12/29 07:58:32;;;;;;;8.75;1.30;;;5.90;99.90;;;;;;6162821;23;20017;-91
2020/12/29 08:01:06;;;;;;;7.57;0.90;;;5.90;99.90;;;;;;6162056;23;20017;-90
2020/12/29 08:03:51;;;;;;;5.22;0.95;;;5.90;99.90;;;;;;6132351;23;20085;-90
2020/12/29 08:06:34;;;;;;;3.65;0.80;;;5.90;99.90;;;;;;6132379;23;20076;-91
2020/12/29 08:09:12;;;;;;;6.32;0.80;;;5.90;99.90;;;;;;6132934;23;20100;-90
2020/12/29 08:11:47;;;;;;;4.60;0.60;;;5.80;99.90;;;;;;6132421;23;20021;-91
2020/12/29 08:14:25;;;;;;;7.03;1.00;;;5.80;99.90;;;;;;6132450;23;20018;-90
2020/12/29 08:17:11;;;;;;;8.35;1.60;;;5.80;99.90;;;;;;6133027;23;20022;-91
2020/12/29 08:19:57;;;;;;;10.15;1.50;;;5.90;99.90;;;;;;6132915;23;20100;-90
2020/12/29 08:22:31;;;;;;;4.78;1.27;;;5.90;99.90;;;;;;6132619;23;20441;-91
2020/12/29 08:25:09;;;;;;;7.22;1.52;;;5.90;99.90;;;;;;6155777;23;20374;-90
2020/12/29 08:28:08;;;;;;;10.50;1.40;;;5.90;99.90;;;;;;6131676;23;20395;-91
2020/12/29 08:30:42;;;;;;;7.63;1.30;;;5.90;99.90;;;;;;6133297;23;20017;-90
2020/12/29 08:33:18;;;;;;;7.38;1.20;;;5.90;99.90;;;;;;6155488;23;20418;-90
2020/12/29 08:35:58;;;;;;;9.55;1.83;;;5.90;99.90;;;;;;6155086;23;20037;-89
2020/12/29 08:38:30;;;;;;;8.43;1.55;;;5.90;99.90;;;;;;6130963;23;20013;-88
2020/12/29 08:41:10;;;;;;;9.90;1.40;;;5.90;99.90;;;;;;6129397;23;20021;-89
2020/12/29 08:43:50;;;;;;;10.80;2.30;;;5.90;99.90;;;;;;6128571;23;20085;-89
2020/12/29 08:46:24;;;;;;;10.30;1.90;;;6.00;99.90;;;;;;6129011;23;20025;-90
2020/12/29 08:48:57;;;;;;;14.60;1.40;;;5.90;99.90;;;;;;6152736;23;20084;-88
2020/12/29 08:51:32;;;;;;;9.23;1.60;;;5.90;99.90;;;;;;6128380;23;20047;-88
2020/12/29 08:54:08;;;;;;;11.85;1.67;;;5.90;99.90;;;;;;6127709;23;20021;-87
2020/12/29 08:56:40;;;;;;;7.68;1.45;;;5.90;99.90;;;;;;6127468;23;20028;-87
2020/12/29 08:59:12;;;;;;;5.57;0.93;;;5.90;99.90;;;;;;6152614;23;20021;-87
2020/12/29 09:01:44;;;;;;;5.55;0.70;;;5.90;99.90;;;;;;6133425;23;20333;-86
2020/12/29 09:04:36;;;;;;;4.00;0.68;;;5.90;99.90;;;;;;6157201;23;20020;-87
2020/12/29 09:07:10;;;;;;;7.20;0.90;;;5.90;99.90;;;;;;6157580;23;20107;-87
2020/12/29 09:09:51;;;;;;;5.78;1.05;;;5.90;99.90;;;;;;6157443;23;20021;-88
2020/12/29 09:12:31;;;;;;;6.35;0.85;;;5.90;99.90;;;;;;6157782;23;20377;-88
2020/12/29 09:15:04;;;;;;;7.93;1.20;;;5.90;99.90;;;;;;6157593;23;20023;-88
2020/12/29 09:17:34;;;;;;;5.53;0.73;;;6.00;99.90;;;;;;6158330;23;20021;-88
2020/12/29 09:20:11;;;;;;;9.93;1.30;;;6.00;99.90;;;;;;6158283;23;20017;-88
2020/12/29 09:22:53;;;;;;;8.18;1.17;;;6.00;99.90;;;;;;6158279;23;20473;-88
2020/12/29 09:25:32;;;;;;;10.95;1.58;;;6.00;99.90;;;;;;6157481;23;20039;-87
2020/12/29 09:28:17;;;;;;;10.23;1.63;;;6.00;99.90;;;;;;6157930;23;20071;-87
2020/12/29 09:31:10;;;;;;;11.77;2.05;;;6.10;99.90;;;;;;6158590;23;20075;-88
2020/12/29 09:33:49;;;;;;;11.63;1.98;;;6.20;99.90;;;;;;6158605;23;20384;-87
2020/12/29 09:36:27;;;;;;;9.43;1.35;;;6.30;99.90;;;;;;6158097;23;20017;-91
2020/12/29 09:38:58;;;;;;;15.38;1.92;;;6.40;99.90;;;;;;6160183;23;20068;-90
2020/12/29 09:41:28;;;;;;;12.82;1.73;;;6.60;99.90;;;;;;6159632;23;20018;-90
2020/12/29 09:43:59;;;;;;;9.90;1.52;;;6.70;99.90;;;;;;6158994;23;20484;-89
2020/12/29 09:46:41;;;;;;;10.52;1.73;;;6.90;99.90;;;;;;6159542;23;20287;-89
2020/12/29 09:49:14;;;;;;;11.45;2.20;;;7.00;99.90;;;;;;6159912;23;20441;-89
2020/12/29 09:51:46;;;;;;;20.30;2.38;;;7.10;99.90;;;;;;6158961;23;20068;-88
2020/12/29 09:54:16;;;;;;;11.00;2.05;;;7.00;99.90;;;;;;6158960;23;20013;-89
2020/12/29 09:56:48;;;;;;;13.40;2.10;;;7.00;99.90;;;;;;6159643;23;20017;-89
2020/12/29 09:59:21;;;;;;;11.65;1.58;;;7.00;99.90;;;;;;6160286;23;20017;-89
2020/12/29 10:01:58;;;;;;;9.23;2.25;;;6.90;99.90;;;;;;6159117;23;20100;-89
2020/12/29 10:04:31;;;;;;;11.98;1.55;;;6.90;99.90;;;;;;6159345;23;20058;-89
2020/12/29 10:07:05;;;;;;;8.40;2.28;;;6.90;99.90;;;;;;6159426;23;20017;-89
2020/12/29 10:09:37;;;;;;;13.23;1.70;;;6.90;99.90;;;;;;6159686;23;20349;-89
2020/12/29 10:12:11;;;;;;;9.00;1.85;;;6.90;99.90;;;;;;6158688;23;20017;-89
2020/12/29 10:14:45;;;;;;;9.52;1.63;;;6.90;99.90;;;;;;6157015;23;20075;-88
2020/12/29 10:17:20;;;;;;;7.32;1.48;;;7.00;99.90;;;;;;6158597;23;20100;-89
2020/12/29 10:19:56;;;;;;;13.73;2.25;;;7.10;99.90;;;;;;6159254;23;20056;-90
2020/12/29 10:22:27;;;;;;;13.43;2.10;;;7.20;99.90;;;;;;6159445;23;20025;-89
2020/12/29 10:24:59;;;;;;;14.18;2.08;;;7.20;99.90;;;;;;6183550;23;20021;-89
2020/12/29 10:27:32;;;;;;;11.88;1.92;;;7.20;99.90;;;;;;6158266;23;20055;-89
2020/12/29 10:30:06;;;;;;;18.40;2.17;;;7.30;99.90;;;;;;6158911;23;20044;-89
2020/12/29 10:32:39;;;;;;;10.68;1.92;;;7.30;99.90;;;;;;6159354;23;20024;-89
2020/12/29 10:35:11;;;;;;;13.27;2.17;;;7.30;99.90;;;;;;6158691;23;20184;-89
2020/12/29 10:37:43;;;;;;;13.55;1.55;;;7.40;99.90;;;;;;6159142;23;20385;-89
2020/12/29 10:40:15;;;;;;;10.68;2.03;;;7.40;99.90;;;;;;6159407;23;20057;-88
2020/12/29 10:42:47;;;;;;;9.65;1.73;;;7.40;99.90;;;;;;6159353;23;20364;-90
2020/12/29 10:45:17;;;;;;;11.48;1.52;;;7.30;99.90;;;;;;6182612;23;20013;-90
2020/12/29 10:47:52;;;;;;;6.25;1.63;;;7.30;99.90;;;;;;6159781;23;20060;-90
2020/12/29 10:50:24;;;;;;;9.88;1.52;;;7.30;99.90;;;;;;6159171;23;20465;-89
2020/12/29 10:53:01;;;;;;;9.10;1.65;;;7.30;99.90;;;;;;6159901;23;20091;-89
2020/12/29 10:55:36;;;;;;;4.35;1.30;;;7.30;99.90;;;;;;6159441;23;20013;-89
2020/12/29 10:58:13;;;;;;;8.30;1.23;;;7.30;99.90;;;;;;6160102;23;20068;-89
2020/12/29 11:00:49;;;;;;;8.55;1.35;;;7.30;99.90;;;;;;6159118;23;20025;-90
2020/12/29 11:03:25;;;;;;;5.65;1.00;;;7.30;99.90;;;;;;6159814;23;20025;-90
2020/12/29 11:06:04;;;;;;;11.07;1.40;;;7.30;99.90;;;;;;6158753;23;20072;-90
2020/12/29 11:08:39;;;;;;;6.18;1.05;;;7.30;99.90;;;;;;6159659;23;20020;-90
2020/12/29 11:11:15;;;;;;;8.00;1.20;;;7.40;99.90;;;;;;6160237;23;20396;-90
2020/12/29 11:13:53;;;;;;;7.45;0.95;;;7.40;99.90;;;;;;6160330;23;20044;-90
2020/12/29 11:16:28;;;;;;;9.65;1.27;;;7.40;99.90;;;;;;6158806;23;20090;-91
2020/12/29 11:19:07;;;;;;;6.65;1.23;;;7.50;99.90;;;;;;6159903;23;20092;-91
2020/12/29 11:21:48;;;;;;;6.18;1.17;;;7.50;99.90;;;;;;6183015;23;20017;-91
2020/12/29 11:24:22;;;;;;;;;;;7.50;99.90;;;;;;6159924;23;20017;-91
2020/12/29 11:27:01;;;;;;;5.55;1.10;;;7.50;99.90;;;;;;6159420;23;19916;-90
2020/12/29 11:29:35;;;;;;;10.45;1.40;;;7.50;99.90;;;;;;6159306;23;20023;-90
2020/12/29 11:32:16;;;;;;;13.15;1.70;;;7.50;99.90;;;;;;6161751;23;20031;-90
2020/12/29 11:34:54;;;;;;;8.55;1.45;;;7.60;99.90;;;;;;6158200;23;20024;-90
2020/12/29 11:37:33;;;;;;;9.05;1.60;;;7.60;99.90;;;;;;6183560;23;20083;-91
2020/12/29 11:40:14;;;;;;;12.90;1.83;;;7.70;99.90;;;;;;6159694;23;20029;-91
2020/12/29 11:42:56;;;;;;;6.47;1.50;;;7.80;99.90;;;;;;6160323;23;20028;-91
2020/12/29 11:45:38;;;;;;;8.77;1.73;;;7.90;99.90;;;;;;6160237;23;20013;-96
2020/12/29 11:48:17;;;;;;;10.98;1.27;;;7.90;99.90;;;;;;6159575;23;20449;-91
2020/12/29 11:50:51;;;;;;;6.03;1.25;;;7.90;99.90;;;;;;6159191;23;20088;-89
2020/12/29 11:53:19;;;;;;;8.63;1.20;;;7.80;99.90;;;;;;6158340;23;20013;-89
2020/12/29 11:55:51;;;;;;;9.18;1.08;;;7.80;99.90;;;;;;6157954;23;20021;-90
2020/12/29 11:58:57;;;;;;;7.93;1.17;;;7.70;99.90;;;;;;6160527;23;20021;-94
2020/12/29 12:01:31;;;;;;;10.55;2.45;;;7.70;99.90;;;;;;6158547;23;20025;-89
2020/12/29 12:04:05;;;;;;;7.18;1.70;;;7.70;99.90;;;;;;6157686;23;20100;-90
2020/12/29 12:06:38;;;;;;;10.68;1.38;;;7.70;99.90;;;;;;6158021;23;20040;-90
2020/12/29 12:09:15;;;;;;;7.25;1.27;;;7.70;99.90;;;;;;6158608;23;20013;-89
2020/12/29 12:11:50;;;;;;;12.52;1.85;;;7.60;99.90;;;;;;6158777;23;20051;-90
2020/12/29 12:14:26;;;;;;;8.10;1.58;;;7.60;99.90;;;;;;6159216;23;20025;-89
2020/12/29 12:17:03;;;;;;;10.43;1.80;;;7.50;99.90;;;;;;6159827;23;20017;-91
2020/12/29 12:19:44;;;;;;;11.45;1.60;;;7.50;99.90;;;;;;6157471;23;20025;-90
2020/12/29 12:22:26;;;;;;;11.55;2.03;;;7.50;99.90;;;;;;6160530;23;20021;-90
2020/12/29 12:25:08;;;;;;;13.48;2.58;;;7.60;99.90;;;;;;6159485;23;20071;-89
2020/12/29 12:27:45;;;;;;;16.23;2.30;;;7.70;99.90;;;;;;6158661;23;20121;-90
2020/12/29 12:30:19;;;;;;;12.93;1.45;;;7.70;99.90;;;;;;6158393;23;20517;-90
2020/12/29 12:33:00;;;;;;;11.23;2.15;;;7.70;99.90;;;;;;6159305;23;20033;-89
2020/12/29 12:35:34;;;;;;;9.68;1.77;;;7.80;99.90;;;;;;6158668;23;20017;-89
2020/12/29 12:38:08;;;;;;;10.32;1.85;;;7.80;99.90;;;;;;6160845;23;20028;-89
2020/12/29 12:40:42;;;;;;;9.93;1.83;;;7.90;99.90;;;;;;6158071;23;20306;-94
2020/12/29 12:43:27;;;;;;;14.55;3.03;;;7.90;99.90;;;;;;6160060;23;20032;-91
2020/12/29 12:46:06;;;;;;;10.95;1.60;;;8.00;99.90;;;;;;6158448;23;20092;-90
2020/12/29 12:48:44;;;;;;;11.43;2.58;;;8.00;99.90;;;;;;6159093;23;20029;-91
2020/12/29 12:56:52;;;;;;;11.80;1.77;;;8.20;99.90;;;;;;6142219;23;20029;-94
2020/12/29 12:59:21;;;;;;;8.07;1.58;;;8.30;99.90;;;;;;6130226;23;20041;-93
2020/12/29 13:01:53;;;;;;;7.82;1.45;;;8.30;99.90;;;;;;6131051;23;20041;-94
2020/12/29 13:04:24;;;;;;;7.50;1.30;;;8.40;99.90;;;;;;6162352;23;20021;-95
2020/12/29 13:06:56;;;;;;;9.50;1.90;;;8.50;99.90;;;;;;6158774;23;20055;-93
2020/12/29 13:09:24;;;;;;;6.13;1.33;;;8.50;99.90;;;;;;6157141;23;20017;-93
2020/12/29 13:11:52;;;;;;;7.25;1.20;;;8.40;99.90;;;;;;6159431;23;20068;-93
2020/12/29 13:14:20;;;;;;;6.70;1.40;;;8.40;99.90;;;;;;6160985;23;20021;-91
2020/12/29 13:16:47;;;;;;;8.43;1.50;;;8.40;99.90;;;;;;6160684;23;20475;-91
2020/12/29 13:19:21;;;;;;;8.80;1.30;;;8.40;99.90;;;;;;6162462;23;20092;-94
2020/12/29 13:21:50;;;;;;;9.95;1.58;;;8.50;99.90;;;;;;6163049;23;20040;-92
2020/12/29 13:24:19;;;;;;;9.85;1.70;;;8.50;99.90;;;;;;6161664;23;20013;-92
2020/12/29 13:26:53;;;;;;;15.25;2.38;;;8.60;99.90;;;;;;6163101;23;20021;-92
2020/12/29 13:29:20;;;;;;;11.02;1.80;;;8.60;99.90;;;;;;6163188;23;20020;-92
2020/12/29 13:31:48;;;;;;;11.13;1.60;;;8.60;99.90;;;;;;6163635;23;20021;-93
2020/12/29 13:34:16;;;;;;;7.82;1.60;;;8.70;99.90;;;;;;6163150;23;20032;-93
2020/12/29 13:36:46;;;;;;;8.52;1.52;;;8.70;99.90;;;;;;6163329;23;20023;-93
2020/12/29 13:39:27;;;;;;;12.35;2.17;;;8.70;99.90;;;;;;6166737;23;20019;-93
2020/12/29 13:42:03;;;;;;;9.55;1.52;;;8.70;99.90;;;;;;6162857;23;20024;-93
2020/12/29 13:44:33;;;;;;;10.07;1.70;;;8.70;99.90;;;;;;6163935;23;20014;-93
2020/12/29 13:47:02;;;;;;;10.48;1.92;;;8.70;99.90;;;;;;6164004;23;20021;-94
2020/12/29 13:49:35;;;;;;;11.48;2.30;;;8.70;99.90;;;;;;6164689;23;20013;-94
2020/12/29 13:52:03;;;;;;;10.98;1.90;;;8.80;99.90;;;;;;6162318;23;20092;-93